createdAt,value
2023-06-02T00:02:38.671Z,99011.78
2023-06-02T00:05:41.272Z,99009.09
2023-06-02T00:08:43.365Z,99022.13
2023-06-02T00:11:45.312Z,99020.19
2023-06-02T00:14:49.314Z,99019.38
2023-06-02T00:17:52.573Z,99023.94
2023-06-02T00:20:54.840Z,99013.34
2023-06-02T00:23:56.796Z,99018.94
2023-06-02T00:26:58.989Z,99017.06
2023-06-02T00:30:00.897Z,99015.41
2023-06-02T00:33:03.159Z,99012.06
2023-06-02T00:36:05.434Z,99019.69
2023-06-02T00:39:07.984Z,99013.69
2023-06-02T00:42:11.277Z,99014.06
2023-06-02T00:45:16.714Z,99012.78
2023-06-02T00:48:18.628Z,99014.41
2023-06-02T00:51:21.044Z,99020.56
2023-06-02T00:54:22.983Z,99015.56
2023-06-02T00:57:29.996Z,99014.91
2023-06-02T01:00:38.528Z,99008.50
2023-06-02T01:03:47.538Z,99014.28
2023-06-02T01:06:51.150Z,99019.84
2023-06-02T01:09:58.023Z,99019.22
2023-06-02T01:13:00.215Z,99020.44
2023-06-02T01:16:03.252Z,99016.06
2023-06-02T01:19:14.419Z,99016.84
2023-06-02T01:22:24.576Z,99011.66
2023-06-02T01:25:28.376Z,99012.84
2023-06-02T01:28:30.976Z,99017.56
2023-06-02T01:31:48.001Z,99031.22
2023-06-02T01:34:57.978Z,99030.13
2023-06-02T01:38:01.508Z,99020.56
2023-06-02T01:41:07.780Z,99022.56
2023-06-02T01:44:11.141Z,99024.91
2023-06-02T01:47:13.365Z,99029.81
2023-06-02T01:50:15.314Z,99028.72
2023-06-02T01:53:17.128Z,99025.66
2023-06-02T01:56:19.000Z,99011.81
2023-06-02T01:59:21.635Z,99018.69
2023-06-02T02:02:23.597Z,99019.16
2023-06-02T02:05:25.476Z,99016.44
2023-06-02T02:08:27.268Z,99021.19
2023-06-02T02:11:29.025Z,99023.69
2023-06-02T02:14:31.964Z,99018.94
2023-06-02T02:17:37.802Z,99019.84
2023-06-02T02:20:43.369Z,99031.53
2023-06-02T02:23:45.156Z,99026.22
2023-06-02T02:26:48.160Z,99033.72
2023-06-02T02:29:50.051Z,99042.91
2023-06-02T02:32:53.117Z,99044.84
2023-06-02T02:35:55.420Z,99050.09
2023-06-02T02:38:57.599Z,99042.72
2023-06-02T02:41:59.509Z,99046.78
2023-06-02T02:45:05.283Z,99041.88
2023-06-02T02:48:09.165Z,99032.44
2023-06-02T02:51:11.722Z,99041.84
2023-06-02T02:54:13.649Z,99037.22
2023-06-02T02:57:15.978Z,99032.94
2023-06-02T03:00:18.621Z,99035.91
2023-06-02T03:03:21.724Z,99040.75
2023-06-02T03:06:32.977Z,99041.25
2023-06-02T03:09:36.036Z,99041.53
2023-06-02T03:12:38.088Z,99038.91
2023-06-02T03:15:41.016Z,99046.22
2023-06-02T03:18:44.288Z,99040.44
2023-06-02T03:21:46.503Z,99039.25
2023-06-02T03:24:51.891Z,99039.06
2023-06-02T03:27:55.424Z,99037.03
2023-06-02T03:30:57.626Z,99042.88
2023-06-02T03:34:00.141Z,99030.81
2023-06-02T03:37:02.907Z,99032.69
2023-06-02T03:40:07.294Z,99028.50
2023-06-02T03:43:09.108Z,99023.25
2023-06-02T03:46:11.393Z,99022.78
2023-06-02T03:49:13.446Z,99022.44
2023-06-02T03:52:15.529Z,99018.31
2023-06-02T03:55:17.504Z,99025.56
2023-06-02T03:58:21.097Z,99018.19
2023-06-02T04:01:24.405Z,99014.31
2023-06-02T04:04:28.801Z,99014.94
2023-06-02T04:07:30.992Z,99011.34
2023-06-02T04:10:32.989Z,99017.38
2023-06-02T04:13:35.315Z,99016.75
2023-06-02T04:16:37.941Z,99011.13
2023-06-02T04:19:40.442Z,99016.31
2023-06-02T04:22:42.514Z,99020.09
2023-06-02T04:25:44.481Z,99015.84
2023-06-02T04:28:46.496Z,99014.47
2023-06-02T04:31:49.247Z,99014.47
2023-06-02T04:35:01.540Z,99019.59
2023-06-02T04:38:04.436Z,99022.22
2023-06-02T04:41:07.571Z,99022.31
2023-06-02T04:44:10.574Z,99017.53
2023-06-02T04:47:14.544Z,99022.22
2023-06-02T04:50:16.808Z,99020.63
2023-06-02T04:53:20.165Z,99021.03
2023-06-02T04:56:28.155Z,99015.75
2023-06-02T04:59:30.456Z,99017.22
2023-06-02T05:02:32.798Z,99020.72
2023-06-02T05:05:34.716Z,99020.41
2023-06-02T05:08:37.057Z,99031.38
2023-06-02T05:11:38.940Z,99021.34
2023-06-02T05:14:41.698Z,99021.16
2023-06-02T05:17:45.244Z,99019.34
2023-06-02T05:20:48.742Z,99032.84
2023-06-02T05:23:50.863Z,99026.88
2023-06-02T05:26:52.780Z,99026.38
2023-06-02T05:29:55.012Z,99022.00
2023-06-02T05:32:58.078Z,99020.41
2023-06-02T05:36:01.726Z,99028.34
2023-06-02T05:39:03.973Z,99015.69
2023-06-02T05:42:06.072Z,99021.19
2023-06-02T05:45:08.465Z,99016.22
2023-06-02T05:48:12.591Z,99011.75
2023-06-02T05:51:16.083Z,99021.28
2023-06-02T05:54:19.305Z,99020.09
2023-06-02T05:57:21.455Z,99016.94
2023-06-02T06:00:24.222Z,99018.19
2023-06-02T06:03:26.185Z,99014.00
2023-06-02T06:06:29.632Z,99013.22
2023-06-02T06:09:31.566Z,99019.94
2023-06-02T06:12:34.219Z,99020.75
2023-06-02T06:15:36.087Z,99024.69
2023-06-02T06:18:37.935Z,99034.50
2023-06-02T06:21:40.121Z,99027.03
2023-06-02T06:24:42.518Z,99022.66
2023-06-02T06:27:44.668Z,99016.03
2023-06-02T06:30:46.798Z,99021.69
2023-06-02T06:33:48.912Z,99011.81
2023-06-02T06:36:50.757Z,99029.47
2023-06-02T06:39:52.614Z,99022.03
2023-06-02T06:42:54.502Z,99016.97
2023-06-02T06:46:04.952Z,99018.38
2023-06-02T06:49:07.118Z,99018.69
2023-06-02T06:52:08.844Z,99016.69
2023-06-02T06:55:10.828Z,99017.25
2023-06-02T06:58:12.734Z,99015.16
2023-06-02T07:01:15.020Z,99009.47
2023-06-02T07:04:17.345Z,99007.94
2023-06-02T07:07:19.339Z,99016.19
2023-06-02T07:10:21.346Z,99012.50
2023-06-02T07:13:24.712Z,99011.63
2023-06-02T07:16:26.678Z,99010.09
2023-06-02T07:19:28.572Z,99004.38
2023-06-02T07:22:30.359Z,99005.81
2023-06-02T07:25:32.399Z,98998.53
2023-06-02T07:31:40.537Z,99004.06
2023-06-02T07:34:42.406Z,98998.78
2023-06-02T07:37:44.173Z,99013.63
2023-06-02T07:40:46.710Z,99003.56
2023-06-02T07:43:48.614Z,99009.19
2023-06-02T07:46:50.512Z,99001.22
2023-06-02T07:49:52.493Z,99002.50
2023-06-02T07:52:56.198Z,98999.78
2023-06-02T07:55:58.188Z,99006.91
2023-06-02T07:59:00.136Z,99010.69
2023-06-02T08:02:04.670Z,99009.09
2023-06-02T08:05:07.213Z,99010.72
2023-06-02T08:08:09.265Z,99005.91
2023-06-02T08:11:11.066Z,99007.59
2023-06-02T08:14:13.081Z,99014.22
2023-06-02T08:17:14.963Z,99005.63
2023-06-02T08:20:19.703Z,99001.34
2023-06-02T08:23:21.812Z,99001.72
2023-06-02T08:26:23.670Z,98992.28
2023-06-02T08:29:25.484Z,98992.28
2023-06-02T08:32:27.539Z,98999.13
2023-06-02T08:35:33.489Z,98991.78
2023-06-02T08:38:38.829Z,99002.72
2023-06-02T08:41:41.004Z,99006.53
2023-06-02T08:44:46.658Z,99001.63
2023-06-02T08:47:54.949Z,98998.69
2023-06-02T08:50:59.420Z,98997.25
2023-06-02T08:54:01.854Z,98996.69
2023-06-02T08:57:05.772Z,98988.22
2023-06-02T09:00:08.623Z,98989.34
2023-06-02T09:03:28.270Z,98989.84
2023-06-02T09:06:37.610Z,98976.16
2023-06-02T09:09:47.893Z,98974.72
2023-06-02T09:12:49.833Z,98971.44
2023-06-02T09:16:04.831Z,98972.13
2023-06-02T09:19:06.991Z,98972.59
2023-06-02T09:22:08.994Z,98977.47
2023-06-02T09:25:22.601Z,98973.22
2023-06-02T09:28:25.595Z,98969.34
2023-06-02T09:31:43.064Z,98970.03
2023-06-02T09:34:46.872Z,98975.56
2023-06-02T09:37:58.608Z,98970.69
2023-06-02T09:41:16.005Z,98966.44
2023-06-02T09:44:19.887Z,98969.88
2023-06-02T09:47:25.990Z,98966.94
2023-06-02T09:50:39.059Z,98961.03
2023-06-02T09:53:40.927Z,98952.38
2023-06-02T09:56:43.161Z,98954.47
2023-06-02T09:59:46.390Z,98954.78
2023-06-02T10:02:48.333Z,98955.28
2023-06-02T10:06:05.067Z,98939.97
2023-06-02T10:09:35.176Z,98941.09
2023-06-02T10:13:01.962Z,98943.69
2023-06-02T10:16:17.660Z,98932.75
2023-06-02T10:19:22.278Z,98928.19
2023-06-02T10:22:47.093Z,98927.66
2023-06-02T10:26:13.687Z,98927.19
2023-06-02T10:29:16.807Z,98923.41
2023-06-02T10:32:26.910Z,98926.34
2023-06-02T10:36:02.496Z,98923.22
2023-06-02T10:39:36.317Z,98920.50
2023-06-02T10:42:39.653Z,98917.25
2023-06-02T10:45:43.701Z,98912.97
2023-06-02T10:48:45.857Z,98907.56
2023-06-02T10:52:07.228Z,98910.31
2023-06-02T10:55:09.011Z,98917.00
2023-06-02T10:58:14.266Z,98915.00
2023-06-02T11:01:45.529Z,98912.41
2023-06-02T11:04:47.718Z,98909.63
2023-06-02T11:08:12.697Z,98910.16
2023-06-02T11:11:51.203Z,98906.56
2023-06-02T11:15:05.750Z,98899.22
2023-06-02T11:18:22.836Z,98897.09
2023-06-02T11:21:26.332Z,98896.59
2023-06-02T11:24:28.730Z,98897.91
2023-06-02T11:27:48.422Z,98895.47
2023-06-02T11:31:07.251Z,98897.28
2023-06-02T11:34:16.829Z,98894.81
2023-06-02T11:37:21.977Z,98897.56
2023-06-02T11:40:23.877Z,98896.41
2023-06-02T11:43:25.706Z,98894.56
2023-06-02T11:46:27.578Z,98890.28
2023-06-02T11:49:39.599Z,98895.38
2023-06-02T11:52:41.675Z,98890.88
2023-06-02T11:55:44.398Z,98893.34
2023-06-02T11:58:48.249Z,98881.75
2023-06-02T12:01:50.387Z,98886.16
2023-06-02T12:04:52.374Z,98870.56
2023-06-02T12:07:54.376Z,98864.38
2023-06-02T12:10:59.321Z,98877.13
2023-06-02T12:14:03.606Z,98867.28
2023-06-02T12:17:08.473Z,98872.38
2023-06-02T12:20:10.739Z,98865.06
2023-06-02T12:23:12.664Z,98862.63
2023-06-02T12:26:15.173Z,98863.44
2023-06-02T12:29:17.000Z,98855.13
2023-06-02T12:32:28.642Z,98866.06
2023-06-02T12:35:30.440Z,98849.06
2023-06-02T12:38:33.767Z,98849.88
2023-06-02T12:41:37.125Z,98850.56
2023-06-02T12:44:38.974Z,98848.56
2023-06-02T12:47:40.815Z,98849.56
2023-06-02T12:50:42.755Z,98848.91
2023-06-02T12:53:44.653Z,98852.50
2023-06-02T12:56:46.516Z,98843.50
2023-06-02T12:59:48.357Z,98837.31
2023-06-02T13:02:50.853Z,98828.50
2023-06-02T13:06:01.567Z,98828.13
2023-06-02T13:09:04.362Z,98817.50
2023-06-02T13:12:06.669Z,98817.66
2023-06-02T13:15:08.965Z,98827.47
2023-06-02T13:18:10.887Z,98821.41
2023-06-02T13:21:12.955Z,98826.66
2023-06-02T13:24:17.243Z,98828.97
2023-06-02T13:27:27.157Z,98818.03
2023-06-02T13:30:33.189Z,98812.00
2023-06-02T13:33:35.764Z,98814.44
2023-06-02T13:36:38.630Z,98815.91
2023-06-02T13:39:40.586Z,98807.91
2023-06-02T13:42:42.381Z,98817.22
2023-06-02T13:45:44.491Z,98801.53
2023-06-02T13:48:46.455Z,98800.06
2023-06-02T13:51:50.986Z,98799.41
2023-06-02T13:54:52.931Z,98802.03
2023-06-02T13:57:54.949Z,98797.63
2023-06-02T14:00:56.814Z,98789.78
2023-06-02T14:03:58.741Z,98794.53
2023-06-02T14:07:02.441Z,98794.31
2023-06-02T14:10:05.880Z,98792.69
2023-06-02T14:13:07.778Z,98786.81
2023-06-02T14:16:09.526Z,98790.44
2023-06-02T14:19:14.735Z,98794.31
2023-06-02T14:22:18.999Z,98791.88
2023-06-02T14:25:22.080Z,98784.69
2023-06-02T14:28:23.976Z,98781.25
2023-06-02T14:31:26.087Z,98781.75
2023-06-02T14:34:29.039Z,98781.41
2023-06-02T14:37:31.197Z,98785.97
2023-06-02T14:40:33.117Z,98785.97
2023-06-02T14:43:35.451Z,98790.88
2023-06-02T14:46:37.327Z,98781.09
2023-06-02T14:49:39.278Z,98783.22
2023-06-02T14:52:41.303Z,98787.13
2023-06-02T14:55:43.400Z,98781.06
2023-06-02T14:58:47.459Z,98780.75
2023-06-02T15:01:51.406Z,98783.22
2023-06-02T15:04:53.397Z,98780.28
2023-06-02T15:07:58.400Z,98783.50
2023-06-02T15:11:00.350Z,98783.03
2023-06-02T15:14:02.147Z,98789.22
2023-06-02T15:17:04.124Z,98793.13
2023-06-02T15:20:06.291Z,98790.63
2023-06-02T15:23:08.198Z,98793.56
2023-06-02T15:26:10.170Z,98795.00
2023-06-02T15:29:11.983Z,98789.25
2023-06-02T15:32:13.862Z,98795.91
2023-06-02T15:35:16.487Z,98789.16
2023-06-02T15:38:18.348Z,98798.72
2023-06-02T15:41:20.254Z,98796.97
2023-06-02T15:44:22.212Z,98789.09
2023-06-02T15:47:24.250Z,98795.47
2023-06-02T15:50:26.909Z,98794.78
2023-06-02T15:53:28.811Z,98796.59
2023-06-02T15:56:31.200Z,98801.38
2023-06-02T15:59:33.074Z,98790.66
2023-06-02T16:02:34.940Z,98793.25
2023-06-02T16:05:37.754Z,98800.78
2023-06-02T16:08:39.992Z,98798.56
2023-06-02T16:11:43.545Z,98805.63
2023-06-02T16:14:45.585Z,98797.59
2023-06-02T16:17:47.627Z,98798.06
2023-06-02T16:20:49.572Z,98799.59
2023-06-02T16:23:51.830Z,98799.47
2023-06-02T16:26:53.669Z,98804.59
2023-06-02T16:29:55.480Z,98806.97
2023-06-02T16:32:57.487Z,98803.19
2023-06-02T16:35:59.364Z,98795.59
2023-06-02T16:39:01.150Z,98796.34
2023-06-02T16:42:03.109Z,98792.56
2023-06-02T16:45:05.044Z,98794.03
2023-06-02T16:48:06.973Z,98788.34
2023-06-02T16:51:08.840Z,98795.03
2023-06-02T16:54:11.757Z,98792.94
2023-06-02T16:57:13.604Z,98794.41
2023-06-02T17:00:15.750Z,98788.16
2023-06-02T17:03:17.899Z,98784.63
2023-06-02T17:06:19.776Z,98783.56
2023-06-02T17:09:22.006Z,98791.91
2023-06-02T17:12:23.774Z,98780.44
2023-06-02T17:15:25.584Z,98781.28
2023-06-02T17:18:27.459Z,98790.66
2023-06-02T17:21:29.225Z,98783.53
2023-06-02T17:24:31.169Z,98791.50
2023-06-02T17:27:33.112Z,98786.84
2023-06-02T17:30:34.850Z,98793.94
2023-06-02T17:33:36.777Z,98800.78
2023-06-02T17:36:38.853Z,98796.94
2023-06-02T17:39:40.896Z,98796.59
2023-06-02T17:42:43.264Z,98796.81
2023-06-02T17:45:45.088Z,98803.63
2023-06-02T17:48:46.992Z,98800.56
2023-06-02T17:51:49.561Z,98802.16
2023-06-02T17:54:52.683Z,98803.47
2023-06-02T17:57:54.862Z,98795.50
2023-06-02T18:00:56.822Z,98793.81
2023-06-02T18:03:58.765Z,98805.25
2023-06-02T18:07:01.800Z,98799.44
2023-06-02T18:10:03.902Z,98799.09
2023-06-02T18:13:05.847Z,98805.88
2023-06-02T18:16:08.158Z,98810.19
2023-06-02T18:19:09.957Z,98804.66
2023-06-02T18:22:11.862Z,98809.50
2023-06-02T18:25:14.550Z,98803.97
2023-06-02T18:28:16.968Z,98803.91
2023-06-02T18:31:18.980Z,98804.38
2023-06-02T18:34:20.990Z,98806.75
2023-06-02T18:37:22.840Z,98807.50
2023-06-02T18:40:24.682Z,98806.38
2023-06-02T18:43:26.856Z,98804.94
2023-06-02T18:46:28.990Z,98815.19
2023-06-02T18:49:30.968Z,98809.69
2023-06-02T18:52:35.360Z,98805.25
2023-06-02T18:55:37.260Z,98803.53
2023-06-02T18:58:39.184Z,98805.88
2023-06-02T19:01:42.429Z,98811.53
2023-06-02T19:04:44.314Z,98804.38
2023-06-02T19:07:46.181Z,98804.78
2023-06-02T19:10:48.898Z,98806.13
2023-06-02T19:13:50.916Z,98806.63
2023-06-02T19:16:52.913Z,98810.06
2023-06-02T19:19:54.690Z,98806.69
2023-06-02T19:22:56.570Z,98809.59
2023-06-02T19:25:58.421Z,98810.34
2023-06-02T19:29:00.429Z,98812.69
2023-06-02T19:32:02.702Z,98812.34
2023-06-02T19:35:04.897Z,98810.88
2023-06-02T19:38:06.741Z,98814.09
2023-06-02T19:41:08.789Z,98811.22
2023-06-02T19:44:10.797Z,98815.03
2023-06-02T19:47:12.693Z,98823.22
2023-06-02T19:50:16.530Z,98817.69
2023-06-02T19:53:20.275Z,98813.19
2023-06-02T19:56:22.448Z,98809.56
2023-06-02T19:59:24.370Z,98804.84
2023-06-02T20:02:26.338Z,98810.78
2023-06-02T20:05:28.255Z,98811.88
2023-06-02T20:08:30.176Z,98816.16
2023-06-02T20:11:32.159Z,98811.22
2023-06-02T20:14:34.130Z,98809.56
2023-06-02T20:17:36.878Z,98816.31
2023-06-02T20:20:39.318Z,98813.03
2023-06-02T20:23:42.643Z,98811.53
2023-06-02T20:26:44.649Z,98817.22
2023-06-02T20:29:46.589Z,98809.81
2023-06-02T20:32:48.578Z,98811.72
2023-06-02T20:35:50.586Z,98818.72
2023-06-02T20:38:52.466Z,98809.88
2023-06-02T20:41:54.875Z,98807.41
2023-06-02T20:44:56.599Z,98814.41
2023-06-02T20:47:59.418Z,98813.84
2023-06-02T20:51:01.484Z,98815.88
2023-06-02T20:54:04.221Z,98809.84
2023-06-02T20:57:06.623Z,98808.69
2023-06-02T21:00:10.048Z,98806.09
2023-06-02T21:03:11.918Z,98800.88
2023-06-02T21:06:13.899Z,98799.22
2023-06-02T21:09:15.755Z,98797.81
2023-06-02T21:12:17.600Z,98793.34
2023-06-02T21:15:19.764Z,98796.22
2023-06-02T21:18:21.667Z,98794.81
2023-06-02T21:21:24.003Z,98795.06
2023-06-02T21:24:25.894Z,98791.16
2023-06-02T21:27:27.713Z,98798.97
2023-06-02T21:30:29.624Z,98794.38
2023-06-02T21:33:31.545Z,98791.53
2023-06-02T21:36:33.509Z,98794.75
2023-06-02T21:39:35.459Z,98789.69
2023-06-02T21:42:38.287Z,98791.56
2023-06-02T21:45:40.137Z,98796.91
2023-06-02T21:48:42.063Z,98796.81
2023-06-02T21:51:44.137Z,98793.75
2023-06-02T21:54:45.935Z,98795.53
2023-06-02T21:57:47.771Z,98794.34
2023-06-02T22:00:49.758Z,98791.75
2023-06-02T22:03:51.700Z,98792.81
2023-06-02T22:06:53.655Z,98787.75
2023-06-02T22:09:56.262Z,98793.88
2023-06-02T22:12:58.170Z,98788.31
2023-06-02T22:15:59.973Z,98789.97
2023-06-02T22:19:04.407Z,98789.16
2023-06-02T22:22:07.021Z,98786.31
2023-06-02T22:25:08.998Z,98780.28
2023-06-02T22:28:11.550Z,98778.88
2023-06-02T22:31:13.796Z,98782.91
2023-06-02T22:34:17.461Z,98784.56
2023-06-02T22:37:20.251Z,98779.34
2023-06-02T22:40:22.160Z,98782.06
2023-06-02T22:43:24.040Z,98789.28
2023-06-02T22:46:26.001Z,98788.34
2023-06-02T22:49:27.929Z,98771.44
2023-06-02T22:52:29.834Z,98778.78
2023-06-02T22:55:32.520Z,98779.47
2023-06-02T22:58:34.527Z,98780.78
2023-06-02T23:01:36.488Z,98782.06
2023-06-02T23:04:38.404Z,98782.31
2023-06-02T23:07:40.388Z,98770.03
2023-06-02T23:10:42.260Z,98774.03
2023-06-02T23:13:44.645Z,98791.41
2023-06-02T23:16:48.492Z,98775.81
2023-06-02T23:19:50.468Z,98774.38
2023-06-02T23:22:54.189Z,98771.31
2023-06-02T23:25:59.776Z,98772.00
2023-06-02T23:29:01.739Z,98772.47
2023-06-02T23:32:03.668Z,98767.28
2023-06-02T23:35:06.210Z,98766.22
2023-06-02T23:38:08.255Z,98759.72
2023-06-02T23:41:10.082Z,98753.47
2023-06-02T23:44:11.945Z,98759.59
2023-06-02T23:47:18.060Z,98764.22
2023-06-02T23:50:20.038Z,98750.28
2023-06-02T23:53:21.841Z,98747.31
2023-06-02T23:56:23.786Z,98751.34
2023-06-02T23:59:25.578Z,98752.28
